createdAt,value
2019-05-15T00:00:12.078Z,1024.59
2019-05-15T00:01:12.068Z,1024.57
2019-05-15T00:02:12.057Z,1024.57
2019-05-15T00:03:12.050Z,1024.54
2019-05-15T00:04:12.041Z,1024.54
2019-05-15T00:05:12.036Z,1024.55
2019-05-15T00:06:12.020Z,1024.53
2019-05-15T00:07:12.013Z,1024.53
2019-05-15T00:08:12.008Z,1024.52
2019-05-15T00:09:11.993Z,1024.54
2019-05-15T00:10:11.985Z,1024.51
2019-05-15T00:11:11.977Z,1024.50
2019-05-15T00:12:11.967Z,1024.51
2019-05-15T00:13:11.958Z,1024.49
2019-05-15T00:14:11.949Z,1024.46
2019-05-15T00:15:11.939Z,1024.50
2019-05-15T00:16:11.928Z,1024.51
2019-05-15T00:17:11.919Z,1024.49
2019-05-15T00:18:11.912Z,1024.45
2019-05-15T00:19:11.904Z,1024.49
2019-05-15T00:20:11.891Z,1024.42
2019-05-15T00:21:11.888Z,1024.45
2019-05-15T00:22:11.878Z,1024.43
2019-05-15T00:23:11.869Z,1024.45
2019-05-15T00:24:13.224Z,1024.46
2019-05-15T00:25:11.848Z,1024.44
2019-05-15T00:26:11.838Z,1024.42
2019-05-15T00:27:11.828Z,1024.44
2019-05-15T00:28:11.816Z,1024.46
2019-05-15T00:29:16.116Z,1024.42
2019-05-15T00:30:11.799Z,1024.44
2019-05-15T00:31:11.789Z,1024.45
2019-05-15T00:32:11.780Z,1024.45
2019-05-15T00:33:11.771Z,1024.48
2019-05-15T00:34:12.725Z,1024.42
2019-05-15T00:35:11.752Z,1024.45
2019-05-15T00:36:11.744Z,1024.45
2019-05-15T00:37:11.740Z,1024.45
2019-05-15T00:38:11.724Z,1024.44
2019-05-15T00:39:11.716Z,1024.39
2019-05-15T00:40:11.716Z,1024.39
2019-05-15T00:41:11.697Z,1024.35
2019-05-15T00:42:11.687Z,1024.36
2019-05-15T00:43:11.677Z,1024.38
2019-05-15T00:44:11.669Z,1024.37
2019-05-15T00:45:11.659Z,1024.37
2019-05-15T00:46:11.649Z,1024.37
2019-05-15T00:47:11.640Z,1024.36
2019-05-15T00:48:11.631Z,1024.34
2019-05-15T00:49:11.633Z,1024.37
2019-05-15T00:50:11.613Z,1024.35
2019-05-15T00:51:14.639Z,1024.37
2019-05-15T00:52:12.317Z,1024.32
2019-05-15T00:53:11.583Z,1024.29
2019-05-15T00:54:11.574Z,1024.33
2019-05-15T00:55:11.565Z,1024.31
2019-05-15T00:56:11.554Z,1024.37
2019-05-15T00:57:11.545Z,1024.33
2019-05-15T00:58:11.532Z,1024.34
2019-05-15T00:59:23.140Z,1024.36
2019-05-15T01:00:11.520Z,1024.34
2019-05-15T01:01:11.509Z,1024.36
2019-05-15T01:02:11.499Z,1024.33
2019-05-15T01:03:11.489Z,1024.33
2019-05-15T01:04:11.480Z,1024.33
2019-05-15T01:05:11.472Z,1024.32
2019-05-15T01:06:11.461Z,1024.34
2019-05-15T01:07:11.454Z,1024.35
2019-05-15T01:08:11.442Z,1024.31
2019-05-15T01:09:11.440Z,1024.31
2019-05-15T01:10:11.425Z,1024.29
2019-05-15T01:11:11.415Z,1024.29
2019-05-15T01:12:11.401Z,1024.29
2019-05-15T01:13:11.416Z,1024.28
2019-05-15T01:14:12.129Z,1024.26
2019-05-15T01:15:11.374Z,1024.26
2019-05-15T01:16:11.370Z,1024.23
2019-05-15T01:17:11.363Z,1024.23
2019-05-15T01:18:11.349Z,1024.23
2019-05-15T01:19:11.340Z,1024.23
2019-05-15T01:20:11.327Z,1024.21
2019-05-15T01:21:11.319Z,1024.22
2019-05-15T01:22:11.313Z,1024.23
2019-05-15T01:23:11.314Z,1024.24
2019-05-15T01:24:11.290Z,1024.19
2019-05-15T01:25:11.284Z,1024.19
2019-05-15T01:26:11.268Z,1024.20
2019-05-15T01:27:11.261Z,1024.15
2019-05-15T01:28:11.251Z,1024.16
2019-05-15T01:29:11.250Z,1024.13
2019-05-15T01:30:11.232Z,1024.13
2019-05-15T01:31:11.224Z,1024.10
2019-05-15T01:32:11.214Z,1024.13
2019-05-15T01:33:11.211Z,1024.11
2019-05-15T01:34:11.193Z,1024.13
2019-05-15T01:35:11.187Z,1024.11
2019-05-15T01:36:11.175Z,1024.09
2019-05-15T01:37:11.166Z,1024.12
2019-05-15T01:38:11.154Z,1024.07
2019-05-15T01:39:11.143Z,1024.05
2019-05-15T01:40:11.140Z,1024.04
2019-05-15T01:41:11.128Z,1024.04
2019-05-15T01:42:11.123Z,1024.04
2019-05-15T01:43:11.108Z,1024.05
2019-05-15T01:44:11.097Z,1024.01
2019-05-15T01:45:11.088Z,1024.05
2019-05-15T01:46:11.078Z,1024.05
2019-05-15T01:47:11.071Z,1024.03
2019-05-15T01:48:11.059Z,1024.04
2019-05-15T01:49:11.048Z,1024.02
2019-05-15T01:50:11.043Z,1024.04
2019-05-15T01:51:11.040Z,1024.05
2019-05-15T01:52:11.020Z,1024.03
2019-05-15T01:53:11.017Z,1023.97
2019-05-15T01:54:11.003Z,1024.04
2019-05-15T01:55:10.991Z,1024.03
2019-05-15T01:56:10.990Z,1024.02
2019-05-15T01:57:10.974Z,1023.99
2019-05-15T01:58:10.966Z,1023.97
2019-05-15T01:59:10.955Z,1023.98
2019-05-15T02:00:10.945Z,1023.95
2019-05-15T02:01:10.936Z,1023.95
2019-05-15T02:02:10.925Z,1023.94
2019-05-15T02:03:10.931Z,1023.93
2019-05-15T02:04:10.903Z,1023.89
2019-05-15T02:05:10.895Z,1023.89
2019-05-15T02:06:10.895Z,1023.89
2019-05-15T02:07:10.883Z,1023.90
2019-05-15T02:08:10.865Z,1023.93
2019-05-15T02:09:10.858Z,1023.85
2019-05-15T02:10:10.846Z,1023.87
2019-05-15T02:11:10.837Z,1023.88
2019-05-15T02:12:10.825Z,1023.86
2019-05-15T02:13:10.816Z,1023.89
2019-05-15T02:14:10.809Z,1023.89
2019-05-15T02:15:10.796Z,1023.83
2019-05-15T02:16:10.785Z,1023.87
2019-05-15T02:17:10.784Z,1023.84
2019-05-15T02:18:10.769Z,1023.84
2019-05-15T02:19:10.761Z,1023.84
2019-05-15T02:20:10.749Z,1023.84
2019-05-15T02:21:10.737Z,1023.84
2019-05-15T02:22:10.732Z,1023.81
2019-05-15T02:23:12.087Z,1023.77
2019-05-15T02:24:10.707Z,1023.79
2019-05-15T02:25:10.702Z,1023.78
2019-05-15T02:26:10.688Z,1023.78
2019-05-15T02:27:10.719Z,1023.77
2019-05-15T02:28:10.661Z,1023.77
2019-05-15T02:29:13.769Z,1023.78
2019-05-15T02:30:22.101Z,1023.76
2019-05-15T02:31:10.806Z,1023.76
2019-05-15T02:32:10.634Z,1023.75
2019-05-15T02:33:11.182Z,1023.73
2019-05-15T02:34:10.621Z,1023.70
2019-05-15T02:35:10.608Z,1023.73
2019-05-15T02:36:10.608Z,1023.70
2019-05-15T02:37:10.591Z,1023.72
2019-05-15T02:38:15.188Z,1023.71
2019-05-15T02:39:10.551Z,1023.72
2019-05-15T02:40:10.684Z,1023.72
2019-05-15T02:41:10.574Z,1023.69
2019-05-15T02:42:10.529Z,1023.72
2019-05-15T02:43:10.762Z,1023.70
2019-05-15T02:44:11.059Z,1023.68
2019-05-15T02:45:10.824Z,1023.70
2019-05-15T02:46:10.516Z,1023.71
2019-05-15T02:47:10.479Z,1023.67
2019-05-15T02:48:10.470Z,1023.71
2019-05-15T02:49:10.461Z,1023.71
2019-05-15T02:50:11.201Z,1023.71
2019-05-15T02:51:10.490Z,1023.73
2019-05-15T02:52:10.437Z,1023.72
2019-05-15T02:53:10.611Z,1023.69
2019-05-15T02:54:10.725Z,1023.72
2019-05-15T02:55:10.404Z,1023.68
2019-05-15T02:56:10.393Z,1023.74
2019-05-15T02:57:10.390Z,1023.70
2019-05-15T02:58:10.685Z,1023.69
2019-05-15T02:59:10.365Z,1023.69
2019-05-15T03:00:11.069Z,1023.71
2019-05-15T03:01:10.344Z,1023.68
2019-05-15T03:02:10.538Z,1023.70
2019-05-15T03:03:10.325Z,1023.71
2019-05-15T03:04:10.314Z,1023.74
2019-05-15T03:05:10.326Z,1023.69
2019-05-15T03:06:10.361Z,1023.70
2019-05-15T03:07:10.284Z,1023.68
2019-05-15T03:08:10.279Z,1023.69
2019-05-15T03:09:10.269Z,1023.67
2019-05-15T03:10:10.255Z,1023.72
2019-05-15T03:11:10.279Z,1023.69
2019-05-15T03:12:10.235Z,1023.68
2019-05-15T03:13:10.376Z,1023.67
2019-05-15T03:14:10.213Z,1023.66
2019-05-15T03:15:10.293Z,1023.64
2019-05-15T03:16:10.559Z,1023.66
2019-05-15T03:17:10.184Z,1023.67
2019-05-15T03:18:10.385Z,1023.67
2019-05-15T03:19:10.244Z,1023.69
2019-05-15T03:20:10.896Z,1023.65
2019-05-15T03:21:10.191Z,1023.66
2019-05-15T03:22:10.171Z,1023.68
2019-05-15T03:23:10.359Z,1023.66
2019-05-15T03:24:10.424Z,1023.69
2019-05-15T03:25:10.788Z,1023.68
2019-05-15T03:26:10.109Z,1023.69
2019-05-15T03:27:10.096Z,1023.68
2019-05-15T03:28:10.762Z,1023.70
2019-05-15T03:29:10.138Z,1023.69
2019-05-15T03:30:13.607Z,1023.66
2019-05-15T03:31:31.071Z,1023.70
2019-05-15T03:32:25.449Z,1023.69
2019-05-15T03:33:18.529Z,1023.67
2019-05-15T03:34:20.788Z,1023.69
2019-05-15T03:35:14.184Z,1023.69
2019-05-15T03:36:13.087Z,1023.67
2019-05-15T03:37:12.080Z,1023.65
2019-05-15T03:38:09.973Z,1023.66
2019-05-15T03:39:09.969Z,1023.68
2019-05-15T03:40:10.713Z,1023.64
2019-05-15T03:41:10.583Z,1023.64
2019-05-15T03:42:09.932Z,1023.65
2019-05-15T03:43:09.926Z,1023.69
2019-05-15T03:44:09.948Z,1023.64
2019-05-15T03:45:10.580Z,1023.67
2019-05-15T03:46:09.894Z,1023.68
2019-05-15T03:47:09.898Z,1023.64
2019-05-15T03:48:09.874Z,1023.62
2019-05-15T03:49:09.864Z,1023.64
2019-05-15T03:50:09.969Z,1023.62
2019-05-15T03:51:09.860Z,1023.63
2019-05-15T03:52:10.187Z,1023.63
2019-05-15T03:53:10.662Z,1023.66
2019-05-15T03:54:09.822Z,1023.70
2019-05-15T03:55:11.171Z,1023.71
2019-05-15T03:56:10.097Z,1023.70
2019-05-15T03:57:10.010Z,1023.73
2019-05-15T03:58:10.320Z,1023.72
2019-05-15T03:59:09.756Z,1023.69
2019-05-15T04:00:10.031Z,1023.66
2019-05-15T04:01:27.702Z,1023.66
2019-05-15T04:02:09.756Z,1023.63
2019-05-15T04:03:10.758Z,1023.63
2019-05-15T04:04:09.801Z,1023.66
2019-05-15T04:05:11.961Z,1023.67
2019-05-15T04:06:10.222Z,1023.69
2019-05-15T04:07:09.688Z,1023.66
2019-05-15T04:08:10.893Z,1023.66
2019-05-15T04:09:09.946Z,1023.65
2019-05-15T04:10:10.249Z,1023.71
2019-05-15T04:11:09.649Z,1023.69
2019-05-15T04:12:09.688Z,1023.72
2019-05-15T04:13:09.984Z,1023.68
2019-05-15T04:14:10.311Z,1023.67
2019-05-15T04:15:10.203Z,1023.63
2019-05-15T04:16:10.452Z,1023.62
2019-05-15T04:17:09.637Z,1023.62
2019-05-15T04:18:09.934Z,1023.64
2019-05-15T04:19:09.917Z,1023.63
2019-05-15T04:20:09.961Z,1023.61
2019-05-15T04:21:09.752Z,1023.61
2019-05-15T04:22:09.628Z,1023.60
2019-05-15T04:23:10.387Z,1023.63
2019-05-15T04:24:09.614Z,1023.62
2019-05-15T04:25:10.003Z,1023.66
2019-05-15T04:26:09.644Z,1023.64
2019-05-15T04:27:10.648Z,1023.66
2019-05-15T04:28:09.992Z,1023.62
2019-05-15T04:29:09.890Z,1023.65
2019-05-15T04:30:10.668Z,1023.67
2019-05-15T04:31:09.650Z,1023.69
2019-05-15T04:32:10.602Z,1023.67
2019-05-15T04:33:10.023Z,1023.66
2019-05-15T04:34:09.421Z,1023.64
2019-05-15T04:35:09.858Z,1023.63
2019-05-15T04:36:09.977Z,1023.64
2019-05-15T04:37:09.633Z,1023.65
2019-05-15T04:38:09.695Z,1023.62
2019-05-15T04:39:10.007Z,1023.61
2019-05-15T04:40:09.765Z,1023.61
2019-05-15T04:41:09.982Z,1023.64
2019-05-15T04:42:09.346Z,1023.60
2019-05-15T04:43:10.646Z,1023.58
2019-05-15T04:44:10.303Z,1023.58
2019-05-15T04:45:10.410Z,1023.61
2019-05-15T04:46:10.071Z,1023.59
2019-05-15T04:47:09.898Z,1023.63
2019-05-15T04:48:10.404Z,1023.61
2019-05-15T04:49:09.450Z,1023.60
2019-05-15T04:50:09.573Z,1023.61
2019-05-15T04:51:09.974Z,1023.65
2019-05-15T04:52:10.359Z,1023.62
2019-05-15T04:53:10.546Z,1023.65
2019-05-15T04:54:09.766Z,1023.65
2019-05-15T04:55:10.550Z,1023.68
2019-05-15T04:56:09.650Z,1023.66
2019-05-15T04:57:09.474Z,1023.65
2019-05-15T04:58:10.207Z,1023.66
2019-05-15T04:59:10.141Z,1023.62
2019-05-15T05:00:09.840Z,1023.65
2019-05-15T05:01:09.679Z,1023.62
2019-05-15T05:02:17.424Z,1023.61
2019-05-15T05:03:09.996Z,1023.63
2019-05-15T05:04:09.532Z,1023.57
2019-05-15T05:05:10.154Z,1023.59
2019-05-15T05:06:09.924Z,1023.55
2019-05-15T05:07:09.572Z,1023.56
2019-05-15T05:08:09.428Z,1023.55
2019-05-15T05:09:09.414Z,1023.60
2019-05-15T05:10:09.871Z,1023.59
2019-05-15T05:11:09.921Z,1023.58
2019-05-15T05:12:09.072Z,1023.59
2019-05-15T05:13:09.196Z,1023.61
2019-05-15T05:14:09.051Z,1023.59
2019-05-15T05:15:09.047Z,1023.58
2019-05-15T05:16:09.671Z,1023.59
2019-05-15T05:17:09.502Z,1023.57
2019-05-15T05:18:09.656Z,1023.60
2019-05-15T05:19:09.163Z,1023.58
2019-05-15T05:20:09.000Z,1023.60
2019-05-15T05:21:08.991Z,1023.64
2019-05-15T05:22:08.982Z,1023.61
2019-05-15T05:23:08.975Z,1023.64
2019-05-15T05:24:08.971Z,1023.61
2019-05-15T05:25:08.954Z,1023.60
2019-05-15T05:26:11.234Z,1023.61
2019-05-15T05:27:08.937Z,1023.62
2019-05-15T05:28:08.928Z,1023.63
2019-05-15T05:29:08.921Z,1023.62
2019-05-15T05:30:08.911Z,1023.59
2019-05-15T05:31:08.904Z,1023.59
2019-05-15T05:32:09.268Z,1023.59
2019-05-15T05:33:08.887Z,1023.58
2019-05-15T05:34:08.878Z,1023.56
2019-05-15T05:35:08.869Z,1023.61
2019-05-15T05:36:08.868Z,1023.54
2019-05-15T05:37:08.853Z,1023.59
2019-05-15T05:38:08.842Z,1023.57
2019-05-15T05:39:11.413Z,1023.55
2019-05-15T05:40:08.830Z,1023.59
2019-05-15T05:41:08.816Z,1023.52
2019-05-15T05:42:08.807Z,1023.51
2019-05-15T05:43:09.420Z,1023.51
2019-05-15T05:44:08.795Z,1023.55
2019-05-15T05:45:09.528Z,1023.53
2019-05-15T05:46:09.398Z,1023.48
2019-05-15T05:47:09.283Z,1023.52
2019-05-15T05:48:08.981Z,1023.50
2019-05-15T05:49:08.749Z,1023.51
2019-05-15T05:50:08.739Z,1023.48
2019-05-15T05:51:09.439Z,1023.53
2019-05-15T05:52:08.726Z,1023.51
2019-05-15T05:53:08.930Z,1023.57
2019-05-15T05:54:08.707Z,1023.55
2019-05-15T05:55:09.089Z,1023.51
2019-05-15T05:56:09.113Z,1023.52
2019-05-15T05:57:09.079Z,1023.49
2019-05-15T05:58:08.675Z,1023.49
2019-05-15T05:59:09.377Z,1023.49
2019-05-15T06:00:09.339Z,1023.50
2019-05-15T06:01:09.265Z,1023.48
2019-05-15T06:02:08.639Z,1023.47
2019-05-15T06:03:08.882Z,1023.46
2019-05-15T06:04:08.624Z,1023.49
2019-05-15T06:05:08.619Z,1023.46
2019-05-15T06:06:09.708Z,1023.41
2019-05-15T06:07:13.856Z,1023.43
2019-05-15T06:08:08.595Z,1023.44
2019-05-15T06:09:09.212Z,1023.41
2019-05-15T06:10:08.995Z,1023.45
2019-05-15T06:11:09.721Z,1023.44
2019-05-15T06:12:08.568Z,1023.44
2019-05-15T06:13:08.856Z,1023.50
2019-05-15T06:14:08.850Z,1023.41
2019-05-15T06:15:09.053Z,1023.45
2019-05-15T06:16:08.679Z,1023.44
2019-05-15T06:17:08.540Z,1023.38
2019-05-15T06:18:08.516Z,1023.46
2019-05-15T06:19:08.507Z,1023.45
2019-05-15T06:20:08.527Z,1023.46
2019-05-15T06:21:09.222Z,1023.46
2019-05-15T06:22:08.874Z,1023.45
2019-05-15T06:23:08.571Z,1023.42
2019-05-15T06:24:13.161Z,1023.46
2019-05-15T06:25:11.222Z,1023.47
2019-05-15T06:26:09.367Z,1023.47
2019-05-15T06:27:08.447Z,1023.48
2019-05-15T06:28:09.113Z,1023.49
2019-05-15T06:29:08.958Z,1023.48
2019-05-15T06:30:08.934Z,1023.48
2019-05-15T06:31:08.862Z,1023.51
2019-05-15T06:32:08.410Z,1023.46
2019-05-15T06:33:12.776Z,1023.49
2019-05-15T06:34:08.444Z,1023.48
2019-05-15T06:35:08.788Z,1023.52
2019-05-15T06:36:09.019Z,1023.50
2019-05-15T06:37:08.483Z,1023.52
2019-05-15T06:38:08.605Z,1023.50
2019-05-15T06:39:08.619Z,1023.48
2019-05-15T06:40:08.645Z,1023.48
2019-05-15T06:41:08.854Z,1023.46
2019-05-15T06:42:08.784Z,1023.44
2019-05-15T06:43:08.759Z,1023.43
2019-05-15T06:44:08.333Z,1023.47
2019-05-15T06:45:08.332Z,1023.47
2019-05-15T06:46:09.214Z,1023.41
2019-05-15T06:47:08.305Z,1023.45
2019-05-15T06:48:09.480Z,1023.45
2019-05-15T06:49:08.515Z,1023.49
2019-05-15T06:50:08.683Z,1023.43
2019-05-15T06:51:08.867Z,1023.41
2019-05-15T06:52:08.845Z,1023.43
2019-05-15T06:53:10.676Z,1023.40
2019-05-15T06:54:08.867Z,1023.40
2019-05-15T06:55:09.088Z,1023.41
2019-05-15T06:56:08.255Z,1023.43
2019-05-15T06:57:09.051Z,1023.39
2019-05-15T06:58:09.209Z,1023.34
2019-05-15T06:59:08.788Z,1023.38
2019-05-15T07:00:08.554Z,1023.42
2019-05-15T07:01:08.881Z,1023.35
2019-05-15T07:02:08.212Z,1023.39
2019-05-15T07:03:20.130Z,1023.38
2019-05-15T07:04:08.484Z,1023.32
2019-05-15T07:05:08.277Z,1023.34
2019-05-15T07:06:09.430Z,1023.28
2019-05-15T07:07:11.022Z,1023.24
2019-05-15T07:08:09.090Z,1023.28
2019-05-15T07:09:09.490Z,1023.29
2019-05-15T07:10:09.000Z,1023.26
2019-05-15T07:11:08.758Z,1023.20
2019-05-15T07:12:08.159Z,1023.22
2019-05-15T07:13:08.867Z,1023.24
2019-05-15T07:14:08.825Z,1023.24
2019-05-15T07:15:09.065Z,1023.18
2019-05-15T07:16:08.398Z,1023.20
2019-05-15T07:17:09.126Z,1023.16
2019-05-15T07:18:08.739Z,1023.17
2019-05-15T07:19:08.402Z,1023.11
2019-05-15T07:20:08.665Z,1023.16
2019-05-15T07:21:10.226Z,1023.17
2019-05-15T07:22:09.327Z,1023.13
2019-05-15T07:23:08.844Z,1023.15
2019-05-15T07:24:09.181Z,1023.13
2019-05-15T07:25:08.898Z,1023.08
2019-05-15T07:26:09.439Z,1023.12
2019-05-15T07:27:08.102Z,1023.14
2019-05-15T07:28:08.777Z,1023.12
2019-05-15T07:29:08.097Z,1023.11
2019-05-15T07:30:11.249Z,1023.10
2019-05-15T07:31:11.657Z,1023.13
2019-05-15T07:32:08.190Z,1023.05
2019-05-15T07:33:08.796Z,1023.13
2019-05-15T07:34:08.463Z,1023.06
2019-05-15T07:35:08.522Z,1023.08
2019-05-15T07:36:08.531Z,1023.10
2019-05-15T07:37:09.701Z,1023.10
2019-05-15T07:38:08.154Z,1023.10
2019-05-15T07:39:08.428Z,1023.05
2019-05-15T07:40:08.438Z,1023.07
2019-05-15T07:41:10.129Z,1023.08
2019-05-15T07:42:08.591Z,1023.13
2019-05-15T07:43:09.352Z,1023.09
2019-05-15T07:44:08.073Z,1023.08
2019-05-15T07:45:08.344Z,1023.00
2019-05-15T07:46:08.562Z,1023.06
2019-05-15T07:47:08.900Z,1023.00
2019-05-15T07:48:09.172Z,1023.09
2019-05-15T07:49:09.031Z,1022.96
2019-05-15T07:50:08.746Z,1022.96
2019-05-15T07:51:11.567Z,1022.72
2019-05-15T07:52:08.610Z,1022.96
2019-05-15T07:53:08.774Z,1022.96
2019-05-15T07:54:09.156Z,1022.81
2019-05-15T07:55:08.772Z,1023.07
2019-05-15T07:56:11.816Z,1022.94
2019-05-15T07:57:08.970Z,1022.99
2019-05-15T07:58:08.586Z,1023.02
2019-05-15T07:59:08.172Z,1022.96
2019-05-15T08:00:08.335Z,1022.95
2019-05-15T08:01:10.074Z,1023.00
2019-05-15T08:02:08.494Z,1023.05
2019-05-15T08:03:10.341Z,1023.02
2019-05-15T08:04:22.652Z,1023.01
2019-05-15T08:05:08.429Z,1023.06
2019-05-15T08:06:08.774Z,1023.03
2019-05-15T08:07:09.147Z,1022.97
2019-05-15T08:08:08.819Z,1023.01
2019-05-15T08:09:08.489Z,1023.03
2019-05-15T08:10:08.684Z,1023.04
2019-05-15T08:11:17.446Z,1023.01
2019-05-15T08:12:08.369Z,1023.02
2019-05-15T08:13:08.881Z,1023.02
2019-05-15T08:14:08.969Z,1023.03
2019-05-15T08:15:08.852Z,1023.05
2019-05-15T08:16:08.622Z,1023.00
2019-05-15T08:17:08.707Z,1023.00
2019-05-15T08:19:08.613Z,1023.13
2019-05-15T08:20:09.035Z,1023.04
2019-05-15T08:21:08.950Z,1023.13
2019-05-15T08:22:08.908Z,1023.08
2019-05-15T08:23:08.514Z,1023.05
2019-05-15T08:24:08.645Z,1022.97
2019-05-15T08:25:13.100Z,1023.00
2019-05-15T08:26:05.719Z,1022.93
2019-05-15T08:26:08.807Z,1023.01
2019-05-15T08:27:08.343Z,1023.08
2019-05-15T08:28:08.817Z,1023.05
2019-05-15T08:29:08.481Z,1023.00
2019-05-15T08:30:08.921Z,1023.06
2019-05-15T08:31:10.071Z,1023.00
2019-05-15T08:32:08.430Z,1023.01
2019-05-15T08:33:08.449Z,1023.02
2019-05-15T08:34:15.350Z,1023.01
2019-05-15T08:35:08.120Z,1022.92
2019-05-15T08:36:08.497Z,1022.85
2019-05-15T08:37:08.056Z,1023.06
2019-05-15T08:38:08.780Z,1023.05
2019-05-15T08:39:08.522Z,1023.02
2019-05-15T08:40:08.554Z,1022.95
2019-05-15T08:41:11.433Z,1023.03
2019-05-15T08:42:08.109Z,1023.02
2019-05-15T08:43:11.412Z,1022.99
2019-05-15T08:44:08.737Z,1023.01
2019-05-15T08:45:09.185Z,1023.04
2019-05-15T08:46:08.443Z,1022.98
2019-05-15T08:47:08.228Z,1022.92
2019-05-15T08:48:09.393Z,1022.93
2019-05-15T08:49:09.139Z,1022.89
2019-05-15T08:50:08.818Z,1022.88
2019-05-15T08:51:08.763Z,1022.76
2019-05-15T08:52:10.275Z,1022.90
2019-05-15T08:53:08.389Z,1022.87
2019-05-15T08:54:08.485Z,1022.89
2019-05-15T08:55:08.562Z,1022.88
2019-05-15T08:56:08.560Z,1022.81
2019-05-15T08:57:08.519Z,1022.81
2019-05-15T08:58:13.624Z,1022.86
2019-05-15T08:59:08.869Z,1022.85
2019-05-15T09:00:09.764Z,1022.82
2019-05-15T09:01:09.711Z,1022.79
2019-05-15T09:02:08.000Z,1022.81
2019-05-15T09:03:08.695Z,1022.82
2019-05-15T09:04:08.984Z,1022.84
2019-05-15T09:05:08.627Z,1022.81
2019-05-15T09:06:09.082Z,1022.80
2019-05-15T09:07:09.162Z,1022.85
2019-05-15T09:08:09.269Z,1022.72
2019-05-15T09:09:09.565Z,1022.65
2019-05-15T09:10:09.009Z,1022.68
2019-05-15T09:11:08.787Z,1022.62
2019-05-15T09:12:08.410Z,1022.72
2019-05-15T09:13:09.649Z,1022.62
2019-05-15T09:14:08.265Z,1022.63
2019-05-15T09:15:07.852Z,1022.59
2019-05-15T09:16:08.364Z,1022.60
2019-05-15T09:17:08.679Z,1022.59
2019-05-15T09:18:15.044Z,1022.46
2019-05-15T09:19:08.405Z,1022.56
2019-05-15T09:20:08.212Z,1022.58
2019-05-15T09:21:08.861Z,1022.61
2019-05-15T09:22:09.188Z,1022.59
2019-05-15T09:23:08.992Z,1022.62
2019-05-15T09:24:09.382Z,1022.58
2019-05-15T09:25:08.959Z,1022.57
2019-05-15T09:26:09.178Z,1022.58
2019-05-15T09:27:09.824Z,1022.54
2019-05-15T09:28:08.642Z,1022.55
2019-05-15T09:29:09.391Z,1022.51
2019-05-15T09:30:08.771Z,1022.50
2019-05-15T09:31:08.408Z,1022.48
2019-05-15T09:32:08.598Z,1022.44
2019-05-15T09:33:08.695Z,1022.41
2019-05-15T09:34:09.103Z,1022.44
2019-05-15T09:35:08.322Z,1022.41
2019-05-15T09:36:09.073Z,1022.42
2019-05-15T09:37:08.593Z,1022.48
2019-05-15T09:38:08.701Z,1022.43
2019-05-15T09:39:08.711Z,1022.43
2019-05-15T09:40:08.844Z,1022.39
2019-05-15T09:41:09.004Z,1022.43
2019-05-15T09:42:08.447Z,1022.41
2019-05-15T09:43:10.926Z,1022.34
2019-05-15T09:44:08.071Z,1022.33
2019-05-15T09:45:08.958Z,1022.33
2019-05-15T09:46:10.301Z,1022.22
2019-05-15T09:47:09.162Z,1022.28
2019-05-15T09:48:10.091Z,1022.20
2019-05-15T09:49:08.859Z,1022.20
2019-05-15T09:50:08.502Z,1022.22
2019-05-15T09:51:09.274Z,1022.18
2019-05-15T09:52:09.037Z,1022.21
2019-05-15T09:53:09.269Z,1022.17
2019-05-15T09:54:08.100Z,1022.10
2019-05-15T09:55:08.585Z,1022.06
2019-05-15T09:56:08.099Z,1022.09
2019-05-15T09:57:10.670Z,1022.06
2019-05-15T09:58:08.255Z,1022.03
2019-05-15T09:59:08.859Z,1022.10
2019-05-15T10:00:08.975Z,1022.00
2019-05-15T10:01:08.566Z,1021.98
2019-05-15T10:02:09.237Z,1022.04
2019-05-15T10:03:09.559Z,1022.02
2019-05-15T10:04:08.319Z,1022.01
2019-05-15T10:05:11.241Z,1022.09
2019-05-15T10:06:08.181Z,1022.02
2019-05-15T10:07:08.257Z,1022.05
2019-05-15T10:08:08.938Z,1021.94
2019-05-15T10:09:09.115Z,1021.99
2019-05-15T10:10:08.716Z,1022.01
2019-05-15T10:11:09.096Z,1021.96
2019-05-15T10:12:09.132Z,1021.91
2019-05-15T10:13:09.056Z,1021.95
2019-05-15T10:14:09.851Z,1021.80
2019-05-15T10:15:11.244Z,1021.93
2019-05-15T10:16:08.404Z,1021.94
2019-05-15T10:17:09.152Z,1021.88
2019-05-15T10:18:09.868Z,1021.92
2019-05-15T10:19:09.000Z,1021.88
2019-05-15T10:20:09.111Z,1021.88
2019-05-15T10:21:09.035Z,1021.93
2019-05-15T10:22:09.757Z,1021.87
2019-05-15T10:23:08.756Z,1021.91
2019-05-15T10:24:09.476Z,1021.83
2019-05-15T10:25:08.372Z,1021.82
2019-05-15T10:26:13.875Z,1021.83
2019-05-15T10:27:08.777Z,1021.79
2019-05-15T10:28:09.730Z,1021.82
2019-05-15T10:29:09.122Z,1021.75
2019-05-15T10:30:09.155Z,1021.78
2019-05-15T10:31:09.432Z,1021.78
2019-05-15T10:32:08.649Z,1021.70
2019-05-15T10:33:08.525Z,1021.73
2019-05-15T10:34:09.204Z,1021.72
2019-05-15T10:35:24.112Z,1021.68
2019-05-15T10:36:08.475Z,1021.63
2019-05-15T10:37:08.416Z,1021.67
2019-05-15T10:38:08.755Z,1021.61
2019-05-15T10:39:08.347Z,1021.66
2019-05-15T10:40:09.068Z,1021.61
2019-05-15T10:41:13.828Z,1021.59
2019-05-15T10:42:08.190Z,1021.64
2019-05-15T10:43:09.037Z,1021.62
2019-05-15T10:44:09.066Z,1021.60
2019-05-15T10:45:08.366Z,1021.62
2019-05-15T10:46:13.373Z,1021.57
2019-05-15T10:47:08.822Z,1021.54
2019-05-15T10:48:09.337Z,1021.52
2019-05-15T10:49:08.609Z,1021.56
2019-05-15T10:50:07.985Z,1021.57
2019-05-15T10:51:10.197Z,1021.49
2019-05-15T10:52:08.683Z,1021.48
2019-05-15T10:53:10.931Z,1021.45
2019-05-15T10:54:08.516Z,1021.46
2019-05-15T10:55:09.179Z,1021.50
2019-05-15T10:56:08.885Z,1021.44
2019-05-15T10:57:08.679Z,1021.39
2019-05-15T10:58:16.552Z,1021.38
2019-05-15T10:59:08.572Z,1021.45
2019-05-15T11:00:07.960Z,1021.40
2019-05-15T11:01:11.048Z,1021.28
2019-05-15T11:02:08.557Z,1021.35
2019-05-15T11:03:08.857Z,1021.37
2019-05-15T11:04:09.263Z,1021.33
2019-05-15T11:05:09.341Z,1021.38
2019-05-15T11:06:09.028Z,1021.31
2019-05-15T11:07:09.669Z,1021.33
2019-05-15T11:08:08.288Z,1021.32
2019-05-15T11:09:08.409Z,1021.31
2019-05-15T11:10:08.605Z,1021.40
2019-05-15T11:11:09.162Z,1021.31
2019-05-15T11:12:08.692Z,1021.31
2019-05-15T11:13:08.973Z,1021.30
2019-05-15T11:14:09.107Z,1021.27
2019-05-15T11:15:10.974Z,1021.25
2019-05-15T11:16:07.397Z,1021.26
2019-05-15T11:17:07.395Z,1021.21
2019-05-15T11:18:09.257Z,1021.17
2019-05-15T11:19:07.989Z,1021.17
2019-05-15T11:20:08.355Z,1021.17
2019-05-15T11:21:08.245Z,1021.16
2019-05-15T11:22:09.048Z,1021.21
2019-05-15T11:23:08.082Z,1021.19
2019-05-15T11:24:08.753Z,1021.15
2019-05-15T11:25:09.810Z,1021.17
2019-05-15T11:26:08.752Z,1021.17
2019-05-15T11:27:09.991Z,1021.12
2019-05-15T11:28:08.196Z,1021.09
2019-05-15T11:29:09.610Z,1021.11
2019-05-15T11:30:07.753Z,1021.13
2019-05-15T11:31:10.352Z,1021.10
2019-05-15T11:32:08.827Z,1021.15
2019-05-15T11:33:09.536Z,1021.12
2019-05-15T11:34:09.374Z,1021.09
2019-05-15T11:35:07.339Z,1021.15
2019-05-15T11:36:07.340Z,1021.16
2019-05-15T11:37:07.342Z,1021.12
2019-05-15T11:38:10.085Z,1021.15
2019-05-15T11:39:08.414Z,1021.18
2019-05-15T11:40:09.988Z,1021.12
2019-05-15T11:41:08.760Z,1021.09
2019-05-15T11:42:08.929Z,1021.04
2019-05-15T11:43:08.476Z,1021.08
2019-05-15T11:44:07.313Z,1021.07
2019-05-15T11:45:07.311Z,1021.06
2019-05-15T11:46:09.696Z,1021.04
2019-05-15T11:47:07.302Z,1021.13
2019-05-15T11:48:08.979Z,1021.01
2019-05-15T11:49:09.377Z,1020.96
2019-05-15T11:50:08.426Z,1020.99
2019-05-15T11:51:09.537Z,1020.94
2019-05-15T11:52:08.753Z,1020.94
2019-05-15T11:53:08.782Z,1020.87
2019-05-15T11:54:08.190Z,1020.86
2019-05-15T11:55:08.342Z,1020.92
2019-05-15T11:56:09.494Z,1020.89
2019-05-15T11:57:08.553Z,1020.91
2019-05-15T11:58:09.349Z,1020.91
2019-05-15T11:59:08.503Z,1020.90
2019-05-15T12:00:15.099Z,1020.85
2019-05-15T12:01:08.623Z,1020.84
2019-05-15T12:02:08.542Z,1020.82
2019-05-15T12:03:09.034Z,1020.85
2019-05-15T12:04:09.208Z,1020.82
2019-05-15T12:05:09.261Z,1020.84